createdAt,value
2018-11-06T00:02:20.127Z,100460.68
2018-11-06T00:04:53.988Z,100458.34
2018-11-06T00:07:22.263Z,100458.87
2018-11-06T00:09:50.555Z,100465.28
2018-11-06T00:12:18.824Z,100462.77
2018-11-06T00:14:47.046Z,100463.29
2018-11-06T00:17:15.375Z,100468.66
2018-11-06T00:19:43.634Z,100462.94
2018-11-06T00:22:12.119Z,100462.12
2018-11-06T00:24:40.337Z,100467.59
2018-11-06T00:27:08.764Z,100465.25
2018-11-06T00:29:37.097Z,100466.11
2018-11-06T00:32:05.215Z,100472.70
2018-11-06T00:34:33.509Z,100470.77
2018-11-06T00:37:01.969Z,100481.00
2018-11-06T00:39:30.223Z,100470.28
2018-11-06T00:41:58.302Z,100476.02
2018-11-06T00:44:26.554Z,100471.50
2018-11-06T00:46:54.671Z,100475.06
2018-11-06T00:49:23.186Z,100480.56
2018-11-06T00:51:51.423Z,100481.45
2018-11-06T00:54:19.871Z,100477.75
2018-11-06T00:56:48.012Z,100478.39
2018-11-06T00:59:16.159Z,100467.20
2018-11-06T01:01:44.318Z,100455.70
2018-11-06T01:04:14.276Z,100461.44
2018-11-06T01:06:42.579Z,100460.70
2018-11-06T01:09:13.115Z,100468.52
2018-11-06T01:11:42.342Z,100466.09
2018-11-06T01:14:10.119Z,100467.34
2018-11-06T01:16:39.046Z,100476.95
2018-11-06T01:19:07.984Z,100481.64
2018-11-06T01:21:36.283Z,100492.16
2018-11-06T01:24:04.355Z,100494.09
2018-11-06T01:26:32.890Z,100494.13
2018-11-06T01:29:01.404Z,100502.58
2018-11-06T01:31:29.407Z,100499.91
2018-11-06T01:33:57.903Z,100496.98
2018-11-06T01:36:26.139Z,100494.83
2018-11-06T01:38:54.595Z,100498.78
2018-11-06T01:41:22.939Z,100501.37
2018-11-06T01:43:51.399Z,100499.58
2018-11-06T01:46:19.623Z,100496.67
2018-11-06T01:48:47.915Z,100499.41
2018-11-06T01:51:16.216Z,100495.44
2018-11-06T01:53:44.111Z,100496.01
2018-11-06T01:56:12.569Z,100496.12
2018-11-06T01:58:40.787Z,100491.58
2018-11-06T02:01:09.089Z,100483.03
2018-11-06T02:03:37.460Z,100492.88
2018-11-06T02:06:05.871Z,100488.39
2018-11-06T02:08:34.306Z,100491.58
2018-11-06T02:11:02.460Z,100488.65
2018-11-06T02:13:30.709Z,100488.81
2018-11-06T02:15:59.184Z,100491.16
2018-11-06T02:18:27.463Z,100488.11
2018-11-06T02:20:55.951Z,100487.71
2018-11-06T02:23:24.185Z,100483.95
2018-11-06T02:25:52.484Z,100494.18
2018-11-06T02:28:20.764Z,100493.27
2018-11-06T02:30:48.986Z,100491.91
2018-11-06T02:33:17.102Z,100485.31
2018-11-06T02:35:45.391Z,100487.45
2018-11-06T02:38:13.806Z,100482.80
2018-11-06T02:40:41.951Z,100479.69
2018-11-06T02:43:10.189Z,100487.46
2018-11-06T02:45:38.694Z,100480.80
2018-11-06T02:48:07.148Z,100486.19
2018-11-06T02:50:35.426Z,100491.01
2018-11-06T02:53:04.827Z,100487.95
2018-11-06T02:55:33.219Z,100490.73
2018-11-06T02:58:01.448Z,100492.73
2018-11-06T03:00:29.720Z,100504.52
2018-11-06T03:02:57.854Z,100497.42
2018-11-06T03:05:26.313Z,100503.17
2018-11-06T03:07:54.587Z,100490.06
2018-11-06T03:10:22.947Z,100497.05
2018-11-06T03:12:51.319Z,100494.73
2018-11-06T03:15:19.387Z,100495.77
2018-11-06T03:17:47.503Z,100488.36
2018-11-06T03:20:15.725Z,100492.72
2018-11-06T03:22:44.279Z,100490.20
2018-11-06T03:25:12.604Z,100490.72
2018-11-06T03:27:40.859Z,100498.28
2018-11-06T03:30:11.422Z,100502.13
2018-11-06T03:32:40.005Z,100499.45
2018-11-06T03:35:09.015Z,100486.02
2018-11-06T03:37:36.947Z,100481.13
2018-11-06T03:40:05.496Z,100484.17
2018-11-06T03:42:33.716Z,100488.67
2018-11-06T03:45:02.201Z,100493.20
2018-11-06T03:47:30.490Z,100488.52
2018-11-06T03:49:58.859Z,100479.75
2018-11-06T03:52:27.264Z,100478.20
2018-11-06T03:54:55.543Z,100486.97
2018-11-06T03:57:23.957Z,100477.53
2018-11-06T03:59:52.443Z,100480.19
2018-11-06T04:02:20.599Z,100476.80
2018-11-06T04:04:49.040Z,100467.99
2018-11-06T04:07:17.270Z,100477.30
2018-11-06T04:09:45.639Z,100482.69
2018-11-06T04:12:13.839Z,100476.09
2018-11-06T04:14:42.295Z,100482.27
2018-11-06T04:17:10.599Z,100470.63
2018-11-06T04:19:39.059Z,100473.30
2018-11-06T04:22:07.134Z,100476.54
2018-11-06T04:24:35.263Z,100474.84
2018-11-06T04:27:03.771Z,100467.95
2018-11-06T04:29:31.819Z,100463.08
2018-11-06T04:32:00.291Z,100466.41
2018-11-06T04:34:28.575Z,100468.08
2018-11-06T04:36:56.990Z,100472.47
2018-11-06T04:39:25.142Z,100474.28
2018-11-06T04:41:53.195Z,100482.41
2018-11-06T04:44:21.439Z,100482.82
2018-11-06T04:46:49.747Z,100486.34
2018-11-06T04:49:18.392Z,100489.73
2018-11-06T04:51:46.630Z,100481.63
2018-11-06T04:54:14.735Z,100485.87
2018-11-06T04:56:43.227Z,100486.03
2018-11-06T04:59:11.787Z,100486.19
2018-11-06T05:01:39.999Z,100491.58
2018-11-06T05:04:08.548Z,100495.97
2018-11-06T05:06:36.729Z,100493.27
2018-11-06T05:09:06.987Z,100500.16
2018-11-06T05:11:35.340Z,100498.29
2018-11-06T05:14:03.735Z,100503.20
2018-11-06T05:16:32.108Z,100511.92
2018-11-06T05:19:00.208Z,100510.08
2018-11-06T05:21:28.546Z,100514.79
2018-11-06T05:23:56.755Z,100520.31
2018-11-06T05:26:25.207Z,100527.89
2018-11-06T05:28:53.314Z,100532.67
2018-11-06T05:31:21.615Z,100533.75
2018-11-06T05:33:50.027Z,100532.42
2018-11-06T05:36:18.069Z,100539.02
2018-11-06T05:38:46.255Z,100532.83
2018-11-06T05:41:14.659Z,100535.52
2018-11-06T05:43:42.791Z,100538.17
2018-11-06T05:46:11.228Z,100544.23
2018-11-06T05:48:39.311Z,100547.28
2018-11-06T05:51:07.856Z,100549.44
2018-11-06T05:53:36.034Z,100550.58
2018-11-06T05:56:04.531Z,100552.11
2018-11-06T05:58:32.785Z,100551.50
2018-11-06T06:01:01.133Z,100551.18
2018-11-06T06:03:29.336Z,100556.21
2018-11-06T06:05:57.639Z,100557.20
2018-11-06T06:08:25.927Z,100565.47
2018-11-06T06:10:54.225Z,100564.14
2018-11-06T06:13:22.644Z,100569.86
2018-11-06T06:15:50.910Z,100572.23
2018-11-06T06:18:19.184Z,100572.55
2018-11-06T06:20:47.491Z,100567.66
2018-11-06T06:23:15.702Z,100574.25
2018-11-06T06:25:43.786Z,100572.05
2018-11-06T06:28:12.177Z,100568.20
2018-11-06T06:30:40.576Z,100564.45
2018-11-06T06:33:08.875Z,100573.89
2018-11-06T06:35:37.342Z,100571.70
2018-11-06T06:38:05.619Z,100565.84
2018-11-06T06:40:34.092Z,100563.13
2018-11-06T06:43:02.587Z,100558.41
2018-11-06T06:45:30.876Z,100564.98
2018-11-06T06:47:59.119Z,100562.45
2018-11-06T06:50:27.631Z,100561.41
2018-11-06T06:52:55.895Z,100558.36
2018-11-06T06:55:24.358Z,100557.88
2018-11-06T06:57:52.390Z,100555.83
2018-11-06T07:00:22.160Z,100557.20
2018-11-06T07:02:50.200Z,100556.03
2018-11-06T07:05:21.683Z,100557.02
2018-11-06T07:07:49.847Z,100555.72
2018-11-06T07:10:19.594Z,100555.23
2018-11-06T07:12:48.207Z,100566.66
2018-11-06T07:15:17.739Z,100565.98
2018-11-06T07:17:47.069Z,100571.88
2018-11-06T07:20:18.606Z,100575.42
2018-11-06T07:22:47.094Z,100574.92
2018-11-06T07:25:15.696Z,100571.38
2018-11-06T07:27:44.980Z,100565.81
2018-11-06T07:30:15.555Z,100564.14
2018-11-06T07:32:44.115Z,100573.57
2018-11-06T07:35:13.136Z,100582.00
2018-11-06T07:37:41.786Z,100568.84
2018-11-06T07:40:12.271Z,100566.16
2018-11-06T07:42:40.319Z,100584.34
2018-11-06T07:45:11.968Z,100578.58
2018-11-06T07:47:40.146Z,100575.93
2018-11-06T07:50:08.937Z,100575.41
2018-11-06T07:52:37.645Z,100595.45
2018-11-06T07:55:07.071Z,100584.51
2018-11-06T07:57:35.390Z,100595.27
2018-11-06T08:00:03.792Z,100597.15
2018-11-06T08:02:37.343Z,100587.88
2018-11-06T08:05:05.615Z,100591.42
2018-11-06T08:07:33.932Z,100588.23
2018-11-06T08:10:02.204Z,100599.02
2018-11-06T08:12:30.709Z,100595.13
2018-11-06T08:14:58.926Z,100595.80
2018-11-06T08:17:27.185Z,100589.90
2018-11-06T08:19:54.900Z,100592.78
2018-11-06T08:22:22.584Z,100599.01
2018-11-06T08:24:50.779Z,100594.09
2018-11-06T08:27:19.019Z,100593.27
2018-11-06T08:29:47.138Z,100593.75
2018-11-06T08:32:16.084Z,100592.41
2018-11-06T08:34:43.831Z,100595.45
2018-11-06T08:37:12.023Z,100601.17
2018-11-06T08:39:40.220Z,100597.13
2018-11-06T08:42:08.683Z,100592.75
2018-11-06T08:44:36.972Z,100591.85
2018-11-06T08:47:05.486Z,100602.17
2018-11-06T08:49:33.623Z,100600.52
2018-11-06T08:52:01.825Z,100600.50
2018-11-06T08:54:29.790Z,100596.50
2018-11-06T08:56:58.115Z,100596.14
2018-11-06T08:59:26.432Z,100590.84
2018-11-06T09:01:54.935Z,100588.94
2018-11-06T09:04:28.493Z,100587.81
2018-11-06T09:06:56.795Z,100584.29
2018-11-06T09:09:25.079Z,100587.53
2018-11-06T09:11:53.496Z,100581.95
2018-11-06T09:14:21.659Z,100587.69
2018-11-06T09:16:50.144Z,100585.91
2018-11-06T09:19:18.334Z,100582.71
2018-11-06T09:21:47.518Z,100579.47
2018-11-06T09:24:15.736Z,100574.95
2018-11-06T09:26:44.227Z,100578.14
2018-11-06T09:29:12.504Z,100575.77
2018-11-06T09:31:40.967Z,100571.27
2018-11-06T09:34:09.176Z,100569.55
2018-11-06T09:36:37.601Z,100563.98
2018-11-06T09:39:08.444Z,100553.61
2018-11-06T09:41:36.740Z,100552.20
2018-11-06T09:44:04.832Z,100554.17
2018-11-06T09:46:33.093Z,100543.41
2018-11-06T09:49:01.359Z,100544.59
2018-11-06T09:51:29.652Z,100541.32
2018-11-06T09:53:57.906Z,100540.12
2018-11-06T09:56:26.224Z,100547.19
2018-11-06T09:58:54.682Z,100533.39
2018-11-06T10:01:22.924Z,100537.95
2018-11-06T10:03:51.239Z,100530.58
2018-11-06T10:06:19.528Z,100531.56
2018-11-06T10:08:47.930Z,100532.32
2018-11-06T10:11:16.319Z,100528.92
2018-11-06T10:13:44.556Z,100525.81
2018-11-06T10:16:13.002Z,100529.67
2018-11-06T10:18:41.344Z,100522.25
2018-11-06T10:21:09.833Z,100519.55
2018-11-06T10:23:37.964Z,100523.84
2018-11-06T10:26:06.139Z,100521.45
2018-11-06T10:28:34.227Z,100514.90
2018-11-06T10:31:02.495Z,100518.14
2018-11-06T10:33:30.776Z,100525.44
2018-11-06T10:35:58.915Z,100524.87
2018-11-06T10:38:27.168Z,100518.89
2018-11-06T10:40:55.406Z,100521.39
2018-11-06T10:43:23.704Z,100522.27
2018-11-06T10:45:52.146Z,100520.93
2018-11-06T10:48:20.611Z,100520.55
2018-11-06T10:50:48.867Z,100519.11
2018-11-06T10:53:17.323Z,100512.95
2018-11-06T10:55:45.911Z,100505.58
2018-11-06T10:58:14.210Z,100506.12
2018-11-06T11:00:48.329Z,100509.56
2018-11-06T11:03:22.296Z,100508.68
2018-11-06T11:05:50.448Z,100502.72
2018-11-06T11:08:18.862Z,100502.66
2018-11-06T11:10:46.951Z,100492.17
2018-11-06T11:13:15.317Z,100490.23
2018-11-06T11:15:43.683Z,100489.80
2018-11-06T11:18:11.775Z,100480.86
2018-11-06T11:20:40.084Z,100479.02
2018-11-06T11:23:08.539Z,100469.16
2018-11-06T11:25:37.132Z,100468.13
2018-11-06T11:28:05.344Z,100466.30
2018-11-06T11:30:33.561Z,100465.53
2018-11-06T11:33:01.837Z,100462.13
2018-11-06T11:35:30.189Z,100466.50
2018-11-06T11:37:57.968Z,100461.30
2018-11-06T11:40:26.270Z,100469.19
2018-11-06T11:42:54.736Z,100461.92
2018-11-06T11:45:23.008Z,100454.39
2018-11-06T11:47:51.475Z,100468.41
2018-11-06T11:50:19.428Z,100461.97
2018-11-06T11:52:47.643Z,100460.34
2018-11-06T11:55:16.006Z,100458.47
2018-11-06T11:57:44.014Z,100453.06
2018-11-06T12:00:17.695Z,100452.81
2018-11-06T12:02:45.867Z,100457.22
2018-11-06T12:05:14.337Z,100448.60
2018-11-06T12:07:42.579Z,100453.48
2018-11-06T12:10:11.494Z,100447.77
2018-11-06T12:12:39.930Z,100451.28
2018-11-06T12:15:09.894Z,100454.00
2018-11-06T12:17:38.249Z,100440.41
2018-11-06T12:20:06.508Z,100439.92
2018-11-06T12:22:34.760Z,100439.58
2018-11-06T12:25:03.224Z,100438.27
2018-11-06T12:27:31.499Z,100440.84
2018-11-06T12:29:59.743Z,100438.45
2018-11-06T12:32:28.031Z,100435.62
2018-11-06T12:34:56.107Z,100433.67
2018-11-06T12:37:24.387Z,100425.64
2018-11-06T12:39:52.920Z,100428.77
2018-11-06T12:42:21.295Z,100427.63
2018-11-06T12:44:49.608Z,100422.12
2018-11-06T12:47:17.921Z,100426.98
2018-11-06T12:49:45.661Z,100423.48
2018-11-06T12:52:14.039Z,100421.61
2018-11-06T12:54:42.351Z,100421.44
2018-11-06T12:57:10.612Z,100423.36
2018-11-06T12:59:39.068Z,100426.44
2018-11-06T13:02:07.371Z,100430.09
2018-11-06T13:04:35.449Z,100432.50
2018-11-06T13:07:03.767Z,100424.75
2018-11-06T13:09:32.166Z,100422.91
2018-11-06T13:12:00.460Z,100424.88
2018-11-06T13:14:28.723Z,100424.90
2018-11-06T13:16:57.020Z,100422.21
2018-11-06T13:19:25.543Z,100422.30
2018-11-06T13:21:53.727Z,100425.01
2018-11-06T13:24:21.636Z,100426.64
2018-11-06T13:26:49.894Z,100418.33
2018-11-06T13:29:18.136Z,100416.72
2018-11-06T13:31:46.252Z,100416.41
2018-11-06T13:34:14.530Z,100415.42
2018-11-06T13:36:42.617Z,100403.92
2018-11-06T13:39:12.869Z,100403.13
2018-11-06T13:41:41.690Z,100405.22
2018-11-06T13:44:10.329Z,100407.17
2018-11-06T13:46:38.207Z,100405.98
2018-11-06T13:49:06.232Z,100405.02
2018-11-06T13:51:34.700Z,100405.98
2018-11-06T13:54:02.936Z,100407.66
2018-11-06T13:56:31.350Z,100413.15
2018-11-06T13:58:59.455Z,100403.98
2018-11-06T14:01:27.807Z,100409.48
2018-11-06T14:03:56.196Z,100410.23
2018-11-06T14:06:24.324Z,100408.36
2018-11-06T14:08:52.471Z,100406.47
2018-11-06T14:11:20.707Z,100402.23
2018-11-06T14:13:49.164Z,100409.67
2018-11-06T14:16:17.410Z,100408.27
2018-11-06T14:18:45.775Z,100405.48
2018-11-06T14:21:13.843Z,100409.27
2018-11-06T14:23:42.121Z,100402.42
2018-11-06T14:26:10.565Z,100409.97
2018-11-06T14:28:39.027Z,100415.09
2018-11-06T14:31:07.141Z,100410.96
2018-11-06T14:33:35.455Z,100409.73
2018-11-06T14:36:03.875Z,100406.08
2018-11-06T14:38:32.077Z,100410.30
2018-11-06T14:41:00.430Z,100406.16
2018-11-06T14:43:28.204Z,100406.05
2018-11-06T14:45:56.205Z,100405.39
2018-11-06T14:48:24.856Z,100405.91
2018-11-06T14:50:53.156Z,100400.66
2018-11-06T14:53:21.395Z,100404.86
2018-11-06T14:55:49.779Z,100400.52
2018-11-06T14:58:18.010Z,100401.61
2018-11-06T15:00:46.437Z,100407.03
2018-11-06T15:03:14.575Z,100412.92
2018-11-06T15:05:42.659Z,100400.88
2018-11-06T15:08:11.117Z,100407.77
2018-11-06T15:10:39.359Z,100413.13
2018-11-06T15:13:07.574Z,100409.19
2018-11-06T15:15:35.691Z,100405.99
2018-11-06T15:18:04.173Z,100401.64
2018-11-06T15:20:32.463Z,100404.91
2018-11-06T15:23:01.016Z,100412.25
2018-11-06T15:25:29.362Z,100406.23
2018-11-06T15:27:57.489Z,100411.88
2018-11-06T15:30:25.779Z,100414.53
2018-11-06T15:32:54.227Z,100406.40
2018-11-06T15:35:22.523Z,100407.72
2018-11-06T15:37:50.248Z,100411.95
2018-11-06T15:40:19.223Z,100407.25
2018-11-06T15:42:47.036Z,100414.42
2018-11-06T15:45:16.631Z,100416.22
2018-11-06T15:47:45.388Z,100413.13
2018-11-06T15:50:14.719Z,100415.42
2018-11-06T15:52:43.755Z,100417.06
2018-11-06T15:55:11.983Z,100418.69
2018-11-06T15:57:40.498Z,100422.03
2018-11-06T16:00:14.080Z,100428.09
2018-11-06T16:02:42.502Z,100423.05
2018-11-06T16:05:10.659Z,100426.92
2018-11-06T16:07:38.906Z,100430.17
2018-11-06T16:10:09.919Z,100427.77
2018-11-06T16:12:37.716Z,100429.39
2018-11-06T16:15:06.194Z,100432.53
2018-11-06T16:17:34.294Z,100434.34
2018-11-06T16:20:02.055Z,100426.78
2018-11-06T16:22:30.304Z,100427.70
2018-11-06T16:24:58.045Z,100436.87
2018-11-06T16:27:25.827Z,100425.91
2018-11-06T16:29:54.077Z,100433.18
2018-11-06T16:32:22.512Z,100427.42
2018-11-06T16:34:50.841Z,100431.19
2018-11-06T16:37:19.667Z,100429.66
2018-11-06T16:39:48.112Z,100429.19
2018-11-06T16:42:16.591Z,100436.91
2018-11-06T16:44:44.863Z,100425.86
2018-11-06T16:47:13.375Z,100428.80
2018-11-06T16:49:41.659Z,100432.84
2018-11-06T16:52:10.207Z,100437.01
2018-11-06T16:54:38.407Z,100442.98
2018-11-06T16:57:06.741Z,100441.17
2018-11-06T16:59:35.020Z,100437.81
2018-11-06T17:02:03.074Z,100435.39
2018-11-06T17:04:31.247Z,100437.16
2018-11-06T17:06:59.576Z,100443.83
2018-11-06T17:09:27.694Z,100441.08
2018-11-06T17:11:56.136Z,100435.52
2018-11-06T17:14:24.489Z,100434.27
2018-11-06T17:16:52.895Z,100432.52
2018-11-06T17:19:21.179Z,100429.89
2018-11-06T17:21:49.452Z,100435.40
2018-11-06T17:24:17.944Z,100434.09
2018-11-06T17:26:46.427Z,100429.05
2018-11-06T17:29:14.308Z,100433.25
2018-11-06T17:31:42.076Z,100431.90
2018-11-06T17:34:09.807Z,100429.90
2018-11-06T17:36:38.332Z,100431.96
2018-11-06T17:39:08.970Z,100430.81
2018-11-06T17:41:36.867Z,100432.75
2018-11-06T17:44:05.378Z,100432.09
2018-11-06T17:46:33.619Z,100440.45
2018-11-06T17:49:02.144Z,100434.91
2018-11-06T17:51:30.163Z,100441.20
2018-11-06T17:53:58.607Z,100441.58
2018-11-06T17:56:26.997Z,100435.83
2018-11-06T17:58:54.927Z,100448.66
2018-11-06T18:01:22.639Z,100440.59
2018-11-06T18:03:50.417Z,100439.44
2018-11-06T18:06:18.201Z,100437.44
2018-11-06T18:08:46.011Z,100440.89
2018-11-06T18:11:13.755Z,100447.83
2018-11-06T18:13:41.551Z,100445.78
2018-11-06T18:16:09.296Z,100447.88
2018-11-06T18:18:37.043Z,100443.42
2018-11-06T18:21:05.256Z,100440.80
2018-11-06T18:23:33.643Z,100445.94
2018-11-06T18:26:01.892Z,100448.33
2018-11-06T18:28:30.255Z,100445.20
2018-11-06T18:30:58.480Z,100444.18
2018-11-06T18:33:26.884Z,100444.91
2018-11-06T18:35:55.266Z,100445.80
2018-11-06T18:38:23.494Z,100447.73
2018-11-06T18:40:51.185Z,100444.67
2018-11-06T18:43:19.658Z,100451.13
2018-11-06T18:45:47.721Z,100445.22
2018-11-06T18:48:16.240Z,100450.72
2018-11-06T18:50:44.544Z,100448.33
2018-11-06T18:53:12.928Z,100441.00
2018-11-06T18:55:41.053Z,100450.08
2018-11-06T18:58:09.697Z,100444.88
2018-11-06T19:00:37.424Z,100442.84
2018-11-06T19:03:05.244Z,100443.40
2018-11-06T19:05:33.714Z,100444.72
2018-11-06T19:08:01.771Z,100445.30
2018-11-06T19:10:29.874Z,100446.22
2018-11-06T19:12:58.179Z,100447.95
2018-11-06T19:15:26.443Z,100452.27
2018-11-06T19:17:54.898Z,100447.61
2018-11-06T19:20:23.207Z,100454.51
2018-11-06T19:22:51.675Z,100446.11
2018-11-06T19:25:19.959Z,100448.16
2018-11-06T19:27:48.439Z,100446.08
2018-11-06T19:30:17.910Z,100446.97
2018-11-06T19:32:45.986Z,100453.51
2018-11-06T19:35:14.592Z,100447.46
2018-11-06T19:37:42.868Z,100446.75
2018-11-06T19:40:12.424Z,100447.43
2018-11-06T19:42:41.520Z,100448.78
2018-11-06T19:45:10.223Z,100444.38
2018-11-06T19:47:38.567Z,100448.23
2018-11-06T19:50:08.472Z,100445.83
2018-11-06T19:52:36.656Z,100447.19
2018-11-06T19:55:05.563Z,100446.92
2018-11-06T19:57:33.932Z,100448.61
2018-11-06T20:00:02.161Z,100444.05
2018-11-06T20:02:30.839Z,100444.05
2018-11-06T20:04:59.139Z,100449.29
2018-11-06T20:07:27.602Z,100436.59
2018-11-06T20:09:56.036Z,100431.69
2018-11-06T20:12:24.191Z,100433.83
2018-11-06T20:14:52.469Z,100433.83
2018-11-06T20:17:20.967Z,100436.80
2018-11-06T20:19:50.071Z,100439.45
2018-11-06T20:22:18.590Z,100434.03
2018-11-06T20:24:47.050Z,100436.74
2018-11-06T20:27:15.517Z,100436.16
2018-11-06T20:29:44.643Z,100430.42
2018-11-06T20:32:13.428Z,100428.47
2018-11-06T20:34:41.771Z,100431.12
2018-11-06T20:37:10.155Z,100428.34
2018-11-06T20:39:38.703Z,100426.72
2018-11-06T20:42:06.499Z,100428.64
2018-11-06T20:44:34.698Z,100422.17
2018-11-06T20:47:03.063Z,100424.00
2018-11-06T20:49:31.713Z,100420.39
2018-11-06T20:51:59.825Z,100423.91
2018-11-06T20:54:28.088Z,100428.24
2018-11-06T20:56:56.411Z,100428.04
2018-11-06T20:59:24.674Z,100432.26
2018-11-06T21:01:53.115Z,100428.67
2018-11-06T21:04:20.976Z,100428.66
2018-11-06T21:06:48.757Z,100431.98
2018-11-06T21:09:16.940Z,100426.02
2018-11-06T21:11:45.302Z,100422.92
2018-11-06T21:14:13.456Z,100420.50
2018-11-06T21:16:41.780Z,100419.29
2018-11-06T21:19:09.530Z,100421.57
2018-11-06T21:21:37.690Z,100420.66
2018-11-06T21:24:05.844Z,100410.94
2018-11-06T21:26:34.264Z,100417.63
2018-11-06T21:29:02.498Z,100415.38
2018-11-06T21:31:30.661Z,100416.20
2018-11-06T21:33:59.190Z,100415.95
2018-11-06T21:36:27.401Z,100417.16
2018-11-06T21:38:55.787Z,100414.67
2018-11-06T21:41:23.948Z,100412.95
2018-11-06T21:43:52.016Z,100408.22
2018-11-06T21:46:20.456Z,100409.14
2018-11-06T21:48:48.567Z,100410.08
2018-11-06T21:51:16.809Z,100406.74
2018-11-06T21:53:45.284Z,100403.58
2018-11-06T21:56:13.406Z,100405.09
2018-11-06T21:58:41.812Z,100412.67
2018-11-06T22:01:09.732Z,100409.14
2018-11-06T22:03:38.035Z,100398.50
2018-11-06T22:06:06.295Z,100400.44
2018-11-06T22:08:34.559Z,100406.20
2018-11-06T22:11:03.087Z,100401.39
2018-11-06T22:13:31.458Z,100400.21
2018-11-06T22:15:59.417Z,100394.80
2018-11-06T22:18:27.662Z,100395.73
2018-11-06T22:20:55.866Z,100400.88
2018-11-06T22:23:23.966Z,100405.53
2018-11-06T22:25:52.301Z,100406.08
2018-11-06T22:28:20.776Z,100402.13
2018-11-06T22:30:49.022Z,100409.42
2018-11-06T22:33:17.350Z,100400.98
2018-11-06T22:35:45.672Z,100402.95
2018-11-06T22:38:13.883Z,100403.41
2018-11-06T22:40:42.158Z,100403.66
2018-11-06T22:43:10.590Z,100402.48
2018-11-06T22:45:38.854Z,100399.37
2018-11-06T22:48:06.865Z,100398.82
2018-11-06T22:50:34.556Z,100403.88
2018-11-06T22:53:02.374Z,100393.52
2018-11-06T22:55:30.198Z,100396.81
2018-11-06T22:57:57.907Z,100401.07
2018-11-06T23:00:31.215Z,100399.55
2018-11-06T23:02:58.959Z,100399.91
2018-11-06T23:05:26.717Z,100390.70
2018-11-06T23:07:59.834Z,100386.34
2018-11-06T23:10:27.617Z,100390.55
2018-11-06T23:12:55.352Z,100391.99
2018-11-06T23:15:23.105Z,100386.98
2018-11-06T23:17:50.879Z,100387.78
2018-11-06T23:20:18.628Z,100386.48
2018-11-06T23:22:46.351Z,100384.29
2018-11-06T23:25:14.077Z,100386.30
2018-11-06T23:27:41.876Z,100381.54
2018-11-06T23:30:11.854Z,100381.23
2018-11-06T23:32:39.627Z,100376.15
2018-11-06T23:35:07.395Z,100376.00
2018-11-06T23:37:35.156Z,100372.31
2018-11-06T23:40:02.895Z,100371.95
2018-11-06T23:42:31.370Z,100371.66
2018-11-06T23:44:59.733Z,100371.73
2018-11-06T23:47:28.243Z,100380.53
2018-11-06T23:49:56.432Z,100374.36
2018-11-06T23:52:24.743Z,100378.83
2018-11-06T23:54:53.195Z,100377.25
2018-11-06T23:57:21.452Z,100374.59
2018-11-06T23:59:49.692Z,100376.75
